Time;durP1;ratioP1;P1;durP2;ratioP2;P2;SDS_P1;SDS_P2;PMS_P1;PMS_P2;Temp;Humidity;BMP_temperature;BMP_pressure;BME280_temperature;BME280_humidity;BME280_pressure;Samples;Min_cycle;Max_cycle;Signal;HPM_P1;HPM_P2
2023/11/01 00:01:14;;;;;;;1.20;0.70;;;9.40;99.90;;;;;;5066955;28;20051;-65
2023/11/01 00:03:40;;;;;;;1.55;0.52;;;9.40;99.90;;;;;;5065540;28;20090;-65
2023/11/01 00:06:06;;;;;;;;;;;9.40;99.90;;;;;;5068852;28;20057;-65
2023/11/01 00:08:32;;;;;;;2.53;0.70;;;9.40;99.90;;;;;;5071568;28;19921;-65
2023/11/01 00:10:57;;;;;;;;;;;9.40;99.90;;;;;;5064560;28;20034;-65
2023/11/01 00:13:23;;;;;;;1.65;0.50;;;9.40;99.90;;;;;;5068536;28;19916;-66
2023/11/01 00:15:48;;;;;;;;;;;9.40;99.90;;;;;;5069532;28;20528;-65
2023/11/01 00:18:14;;;;;;;3.45;0.77;;;9.40;99.90;;;;;;5057759;28;19971;-64
2023/11/01 00:20:40;;;;;;;;;;;9.40;99.90;;;;;;5053493;28;20459;-64
2023/11/01 00:23:05;;;;;;;2.53;0.63;;;9.40;99.90;;;;;;5061209;28;20562;-65
2023/11/01 00:25:31;;;;;;;;;;;9.40;99.90;;;;;;5052259;28;20041;-64
2023/11/01 00:27:56;;;;;;;2.50;0.63;;;9.40;99.90;;;;;;5056948;28;19916;-64
2023/11/01 00:30:24;;;;;;;3.15;0.68;;;9.40;99.90;;;;;;5049803;28;20037;-65
2023/11/01 00:32:50;;;;;;;1.40;0.40;;;9.40;99.90;;;;;;5049465;28;20049;-65
2023/11/01 00:35:15;;;;;;;;;;;9.40;99.90;;;;;;5057078;28;20041;-64
2023/11/01 00:37:44;;;;;;;4.75;0.75;;;9.40;99.90;;;;;;5059030;28;19973;-65
2023/11/01 00:40:10;;;;;;;4.63;0.77;;;9.40;99.90;;;;;;5049013;28;20029;-65
2023/11/01 00:42:38;;;;;;;2.97;1.45;;;9.40;99.90;;;;;;5050589;28;20052;-64
2023/11/01 00:45:05;;;;;;;6.20;0.85;;;9.40;99.90;;;;;;5056214;28;20052;-64
2023/11/01 00:47:31;;;;;;;5.03;1.15;;;9.40;99.90;;;;;;5058855;28;20125;-64
2023/11/01 00:49:56;;;;;;;;;;;9.40;99.90;;;;;;5052397;28;20091;-65
2023/11/01 00:52:22;;;;;;;4.82;1.48;;;9.40;99.90;;;;;;5053630;28;19920;-65
2023/11/01 00:54:47;;;;;;;;;;;9.40;99.90;;;;;;5054393;28;20060;-64
2023/11/01 00:57:13;;;;;;;6.88;1.52;;;9.40;99.90;;;;;;5061189;28;19920;-65
2023/11/01 00:59:38;;;;;;;11.48;2.45;;;9.40;99.90;;;;;;5055609;28;20045;-65
2023/11/01 01:02:04;;;;;;;11.50;2.00;;;9.40;99.90;;;;;;5056262;28;20029;-66
2023/11/01 01:04:30;;;;;;;;;;;9.40;99.90;;;;;;5059480;28;20079;-65
2023/11/01 01:06:56;;;;;;;11.13;1.85;;;9.40;99.90;;;;;;5063568;28;20354;-64
2023/11/01 01:09:21;;;;;;;8.68;1.60;;;9.50;99.90;;;;;;5061156;28;20051;-65
2023/11/01 01:11:47;;;;;;;;;;;9.40;99.90;;;;;;5052532;28;20557;-65
2023/11/01 01:14:12;;;;;;;7.13;1.40;;;9.40;99.90;;;;;;5058426;28;19917;-64
2023/11/01 01:16:38;;;;;;;5.63;1.35;;;9.50;99.90;;;;;;5061502;28;20105;-66
2023/11/01 01:19:04;;;;;;;;;;;9.50;99.90;;;;;;5055657;28;20041;-65
2023/11/01 01:21:29;;;;;;;11.68;2.00;;;9.50;99.90;;;;;;5064679;28;19939;-67
2023/11/01 01:23:55;;;;;;;7.07;1.67;;;9.50;99.90;;;;;;5059133;28;20037;-64
2023/11/01 01:26:21;;;;;;;;;;;9.40;99.90;;;;;;5052694;28;20123;-65
2023/11/01 01:28:46;;;;;;;15.02;1.65;;;9.50;99.90;;;;;;5048712;28;19931;-64
2023/11/01 01:31:12;;;;;;;;;;;9.40;99.90;;;;;;5050343;28;20136;-65
2023/11/01 01:33:38;;;;;;;9.68;1.73;;;9.40;99.90;;;;;;5034771;28;20560;-65
2023/11/01 01:36:04;;;;;;;11.43;1.88;;;9.40;99.90;;;;;;5037237;28;20132;-65
2023/11/01 01:38:29;;;;;;;7.85;1.50;;;9.50;99.90;;;;;;5041164;28;20037;-65
2023/11/01 01:40:55;;;;;;;;;;;9.50;99.90;;;;;;5037520;28;20033;-65
2023/11/01 01:43:21;;;;;;;11.95;2.05;;;9.50;99.90;;;;;;5051073;28;19920;-65
2023/11/01 01:46:13;;;;;;;;;;;9.50;99.90;;;;;;5041312;28;20054;-65
2023/11/01 01:48:40;;;;;;;7.47;1.73;;;9.40;99.90;;;;;;5037788;28;19916;-65
2023/11/01 01:51:08;;;;;;;8.07;2.00;;;9.40;99.90;;;;;;5029507;28;20037;-66
2023/11/01 01:53:37;;;;;;;9.07;1.50;;;9.50;99.90;;;;;;5037077;28;20033;-64
2023/11/01 01:56:04;;;;;;;6.47;1.73;;;9.50;99.90;;;;;;5029135;28;20554;-65
2023/11/01 01:58:36;;;;;;;8.68;1.50;;;9.50;99.90;;;;;;5038505;28;20041;-65
2023/11/01 02:01:03;;;;;;;9.48;2.20;;;9.50;99.90;;;;;;5037018;28;20052;-65
2023/11/01 02:03:29;;;;;;;13.40;2.15;;;9.50;99.90;;;;;;5034391;28;20087;-64
2023/11/01 02:05:55;;;;;;;;;;;9.50;99.90;;;;;;5033459;28;20416;-65
2023/11/01 02:08:21;;;;;;;5.82;1.45;;;9.50;99.90;;;;;;5031913;28;20004;-64
2023/11/01 02:10:47;;;;;;;;;;;9.50;99.90;;;;;;5032414;28;20124;-65
2023/11/01 02:13:15;;;;;;;8.43;1.70;;;9.60;99.90;;;;;;5049294;28;19987;-64
2023/11/01 02:15:43;;;;;;;4.45;1.95;;;9.60;99.90;;;;;;5042627;28;20650;-64
2023/11/01 02:18:10;;;;;;;8.70;2.22;;;9.60;99.90;;;;;;5029113;28;20033;-65
2023/11/01 02:20:37;;;;;;;8.75;2.13;;;9.60;99.90;;;;;;5040303;28;20040;-65
2023/11/01 02:23:30;;;;;;;10.30;2.42;;;9.60;99.90;;;;;;5033694;28;20045;-65
2023/11/01 02:25:55;;;;;;;11.98;2.35;;;9.60;99.90;;;;;;5038980;28;20053;-64
2023/11/01 02:28:21;;;;;;;;;;;9.60;99.90;;;;;;5034613;28;20591;-64
2023/11/01 02:30:47;;;;;;;11.85;2.53;;;9.60;99.90;;;;;;5029835;28;19921;-65
2023/11/01 02:33:12;;;;;;;;;;;9.60;99.90;;;;;;5031702;28;20099;-64
2023/11/01 02:35:39;;;;;;;8.52;1.70;;;9.50;99.90;;;;;;5033320;28;20011;-67
2023/11/01 02:38:05;;;;;;;7.35;1.95;;;9.60;99.90;;;;;;5032303;28;20041;-66
2023/11/01 02:40:30;;;;;;;;;;;9.60;99.90;;;;;;5036714;28;20044;-65
2023/11/01 02:42:56;;;;;;;5.07;1.40;;;9.60;99.90;;;;;;5027176;28;19917;-65
2023/11/01 02:45:22;;;;;;;6.45;1.95;;;9.50;99.90;;;;;;5033125;28;20089;-65
2023/11/01 02:47:50;;;;;;;5.82;1.77;;;9.60;99.90;;;;;;5038616;28;20120;-65
2023/11/01 02:50:19;;;;;;;5.90;1.38;;;9.60;99.90;;;;;;5034638;28;20056;-64
2023/11/01 02:52:45;;;;;;;3.63;1.23;;;9.60;99.90;;;;;;5038931;28;20041;-65
2023/11/01 02:55:13;;;;;;;4.40;1.20;;;9.60;99.90;;;;;;5036380;28;20120;-65
2023/11/01 02:57:39;;;;;;;8.38;1.10;;;9.60;99.90;;;;;;5030953;28;20045;-65
2023/11/01 03:00:07;;;;;;;5.43;1.25;;;9.50;99.90;;;;;;5034722;28;20037;-64
2023/11/01 03:02:36;;;;;;;5.97;1.17;;;9.50;99.90;;;;;;5051279;28;20039;-65
2023/11/01 03:05:03;;;;;;;3.60;1.10;;;9.50;99.90;;;;;;5053477;28;20389;-65
2023/11/01 03:07:29;;;;;;;3.85;1.05;;;9.50;99.90;;;;;;5053865;28;20413;-65
2023/11/01 03:09:54;;;;;;;;;;;9.50;99.90;;;;;;5057503;28;20047;-65
2023/11/01 03:12:20;;;;;;;2.75;0.98;;;9.50;99.90;;;;;;5048203;28;20467;-65
2023/11/01 03:14:45;;;;;;;4.43;1.10;;;9.50;99.90;;;;;;5051260;28;20106;-65
2023/11/01 03:17:12;;;;;;;21.90;1.80;;;9.50;99.90;;;;;;5056026;28;20047;-65
2023/11/01 03:19:38;;;;;;;4.35;0.93;;;9.50;99.90;;;;;;5054036;28;20037;-65
2023/11/01 03:22:03;;;;;;;;;;;9.50;99.90;;;;;;5056950;28;20029;-66
2023/11/01 03:24:32;;;;;;;8.15;1.23;;;9.50;99.90;;;;;;5056222;28;20408;-64
2023/11/01 03:26:59;;;;;;;2.45;1.13;;;9.50;99.90;;;;;;5055382;28;20129;-64
2023/11/01 03:29:25;;;;;;;2.58;0.73;;;9.50;99.90;;;;;;5051912;28;20052;-66
2023/11/01 03:31:50;;;;;;;;;;;9.60;99.90;;;;;;5052072;28;20409;-66
2023/11/01 03:34:16;;;;;;;4.82;0.85;;;9.60;99.90;;;;;;5057265;28;20050;-65
2023/11/01 03:36:42;;;;;;;;;;;9.60;99.90;;;;;;5071588;23;20025;-62
2023/11/01 03:39:09;;;;;;;2.65;1.00;;;9.50;99.90;;;;;;5048870;28;19931;-60
2023/11/01 03:41:44;;;;;;;2.60;0.70;;;9.50;99.90;;;;;;5055706;28;20045;-62
2023/11/01 03:44:10;;;;;;;3.10;1.17;;;9.50;99.90;;;;;;5052946;28;20538;-62
2023/11/01 03:46:35;;;;;;;;;;;9.60;99.90;;;;;;5057040;28;20123;-62
2023/11/01 03:49:02;;;;;;;3.53;1.00;;;9.60;99.90;;;;;;5064526;28;19928;-62
2023/11/01 03:51:28;;;;;;;2.00;0.68;;;9.60;99.90;;;;;;5051108;28;20049;-63
2023/11/01 03:53:54;;;;;;;4.38;0.80;;;9.60;99.90;;;;;;5051220;28;20037;-62
2023/11/01 03:56:20;;;;;;;;;;;9.60;99.90;;;;;;5054645;28;20509;-62
2023/11/01 03:58:46;;;;;;;3.78;0.85;;;9.60;99.90;;;;;;5056574;28;19920;-61
2023/11/01 04:01:12;;;;;;;5.25;1.20;;;9.60;99.90;;;;;;5061280;28;20058;-62
2023/11/01 04:03:37;;;;;;;4.35;0.68;;;9.60;99.90;;;;;;5059625;28;20033;-62
2023/11/01 04:06:03;;;;;;;;;;;9.60;99.90;;;;;;5061963;28;20028;-62
2023/11/01 04:08:28;;;;;;;3.55;0.77;;;9.60;99.90;;;;;;5062088;28;19932;-62
2023/11/01 04:10:54;;;;;;;;;;;9.60;99.90;;;;;;5051161;28;20518;-62
2023/11/01 04:13:19;;;;;;;2.58;0.77;;;9.60;99.90;;;;;;5056901;28;19920;-60
2023/11/01 04:15:45;;;;;;;;;;;9.60;99.90;;;;;;5066090;28;20427;-61
2023/11/01 04:18:29;;;;;;;6.50;0.60;;;9.60;99.90;;;;;;5064921;28;19917;-62
2023/11/01 04:20:56;;;;;;;2.72;0.70;;;9.60;99.90;;;;;;5061785;28;20037;-62
2023/11/01 04:23:22;;;;;;;5.43;1.10;;;9.60;99.90;;;;;;5066514;28;20100;-62
2023/11/01 04:25:47;;;;;;;;;;;9.60;99.90;;;;;;5058307;28;20511;-62
2023/11/01 04:28:13;;;;;;;1.88;0.70;;;9.60;99.90;;;;;;5063465;28;19929;-60
2023/11/01 04:30:39;;;;;;;;;;;9.70;99.90;;;;;;5060384;28;20039;-62
2023/11/01 04:33:08;;;;;;;2.85;0.80;;;9.60;99.90;;;;;;5062423;28;19928;-62
2023/11/01 04:35:36;;;;;;;5.15;0.75;;;9.70;99.90;;;;;;5061414;28;20593;-61
2023/11/01 04:38:02;;;;;;;5.20;1.08;;;9.60;99.90;;;;;;5063259;28;20106;-62
2023/11/01 04:40:28;;;;;;;;;;;9.70;99.90;;;;;;5064389;28;20794;-62
2023/11/01 04:42:57;;;;;;;7.20;0.85;;;9.70;99.90;;;;;;5059938;28;20436;-62
2023/11/01 04:45:23;;;;;;;1.63;0.63;;;9.70;99.90;;;;;;5045062;28;20044;-62
2023/11/01 04:47:48;;;;;;;;;;;9.70;99.90;;;;;;5054641;28;20091;-62
2023/11/01 04:50:16;;;;;;;3.50;0.70;;;9.70;99.90;;;;;;5065059;28;19979;-60
2023/11/01 04:52:43;;;;;;;5.63;0.80;;;9.70;99.90;;;;;;5058710;28;20519;-61
2023/11/01 04:55:12;;;;;;;1.60;0.60;;;9.70;99.90;;;;;;5067726;28;20040;-60
2023/11/01 04:57:38;;;;;;;2.08;0.85;;;9.70;99.90;;;;;;5059392;28;20072;-61
2023/11/01 05:00:08;;;;;;;;;;;9.70;99.90;;;;;;5065277;28;20071;-61
2023/11/01 05:02:35;;;;;;;3.20;0.75;;;9.70;99.90;;;;;;5054886;28;20668;-61
2023/11/01 05:05:05;;;;;;;6.82;0.80;;;9.70;99.90;;;;;;5052779;28;20118;-60
2023/11/01 05:07:32;;;;;;;4.97;0.77;;;9.70;99.90;;;;;;5060716;28;20427;-61
2023/11/01 05:09:57;;;;;;;0.65;0.32;;;9.70;99.90;;;;;;5058422;28;20047;-62
2023/11/01 05:12:23;;;;;;;;;;;9.70;99.90;;;;;;5063069;28;20040;-60
2023/11/01 05:14:48;;;;;;;3.60;0.68;;;9.80;99.90;;;;;;5062403;28;19920;-61
2023/11/01 05:17:14;;;;;;;;;;;9.70;99.90;;;;;;5063550;28;20083;-63
2023/11/01 05:19:39;;;;;;;2.13;0.30;;;9.80;99.90;;;;;;5058004;28;19920;-62
2023/11/01 05:22:06;;;;;;;1.85;0.40;;;9.70;99.90;;;;;;5062522;28;20036;-62
2023/11/01 05:24:31;;;;;;;6.22;0.43;;;9.70;99.90;;;;;;5061642;28;20400;-62
2023/11/01 05:26:57;;;;;;;;;;;9.70;99.90;;;;;;5060497;28;20047;-62
2023/11/01 05:29:22;;;;;;;0.68;0.28;;;9.70;99.90;;;;;;5063244;28;19925;-62
2023/11/01 05:31:48;;;;;;;;;;;9.70;99.90;;;;;;5054440;28;20029;-62
2023/11/01 05:34:13;;;;;;;5.50;0.40;;;9.70;99.90;;;;;;5065679;28;20019;-62
2023/11/01 05:36:39;;;;;;;;;;;9.70;99.90;;;;;;5056728;28;20040;-62
2023/11/01 05:39:05;;;;;;;0.22;0.20;;;9.70;99.90;;;;;;5061272;28;19923;-62
2023/11/01 05:41:31;;;;;;;0.47;0.17;;;9.70;99.90;;;;;;5060747;28;20049;-61
2023/11/01 05:43:57;;;;;;;;;;;9.70;99.90;;;;;;5059374;28;20064;-62
2023/11/01 05:46:22;;;;;;;0.55;0.13;;;9.70;99.90;;;;;;5058384;28;19916;-62
2023/11/01 05:48:48;;;;;;;0.20;0.10;;;9.70;99.90;;;;;;5059630;28;20029;-62
2023/11/01 05:51:14;;;;;;;0.25;0.10;;;9.70;99.90;;;;;;5062176;28;20171;-62
2023/11/01 05:53:40;;;;;;;0.17;0.17;;;9.70;99.90;;;;;;5055954;28;20036;-63
2023/11/01 05:56:05;;;;;;;;;;;9.70;99.90;;;;;;5056385;28;20037;-63
2023/11/01 05:58:31;;;;;;;0.30;0.20;;;9.70;99.90;;;;;;5060283;28;19926;-63
2023/11/01 06:00:56;;;;;;;;;;;9.70;99.90;;;;;;5063380;28;20068;-63
2023/11/01 06:03:25;;;;;;;0.38;0.20;;;9.70;99.90;;;;;;5062650;28;19969;-63
2023/11/01 06:05:52;;;;;;;0.70;0.25;;;9.70;99.90;;;;;;5062315;28;20083;-63
2023/11/01 06:08:17;;;;;;;1.67;0.17;;;9.70;99.90;;;;;;5058215;28;20452;-62
2023/11/01 06:10:44;;;;;;;;;;;9.70;99.90;;;;;;5056452;28;20039;-62
2023/11/01 06:13:10;;;;;;;2.60;0.20;;;9.70;99.90;;;;;;5061624;28;21879;-63
2023/11/01 06:15:36;;;;;;;;;;;9.70;99.90;;;;;;5059269;28;20405;-64
2023/11/01 06:18:05;;;;;;;1.08;0.40;;;9.70;99.90;;;;;;5059261;28;20038;-63
2023/11/01 06:20:36;;;;;;;3.25;0.40;;;9.80;99.90;;;;;;5060370;28;20042;-66
2023/11/01 06:23:08;;;;;;;0.65;0.20;;;9.80;99.90;;;;;;5046294;28;20479;-64
2023/11/01 06:25:34;;;;;;;0.73;0.20;;;9.90;99.90;;;;;;5052735;28;20055;-65
2023/11/01 06:28:00;;;;;;;1.95;0.30;;;9.80;99.90;;;;;;5054066;28;20036;-64
2023/11/01 06:30:25;;;;;;;;;;;9.80;99.90;;;;;;5054975;28;20036;-65
2023/11/01 06:32:51;;;;;;;0.52;0.10;;;9.80;99.90;;;;;;5049321;28;19929;-64
2023/11/01 06:35:17;;;;;;;;;;;9.90;99.90;;;;;;5048147;28;20528;-64
2023/11/01 06:37:43;;;;;;;0.57;0.10;;;9.90;99.90;;;;;;5056622;28;20326;-63
2023/11/01 06:40:09;;;;;;;;;;;9.90;99.90;;;;;;5051842;28;20479;-63
2023/11/01 06:42:35;;;;;;;0.75;0.30;;;9.90;99.90;;;;;;5045423;28;19924;-65
2023/11/01 06:45:00;;;;;;;;;;;9.90;99.90;;;;;;5054225;28;20607;-64
2023/11/01 06:47:26;;;;;;;0.63;0.20;;;9.80;99.90;;;;;;5052956;28;20277;-64
2023/11/01 06:49:51;;;;;;;;;;;9.80;99.90;;;;;;5054169;28;20562;-63
2023/11/01 06:52:17;;;;;;;0.22;0.10;;;9.80;99.90;;;;;;5052894;28;19924;-64
2023/11/01 06:54:45;;;;;;;;;;;9.90;99.90;;;;;;5059624;28;20044;-61
2023/11/01 06:57:11;;;;;;;0.75;0.10;;;9.90;99.90;;;;;;5063177;28;19920;-64
2023/11/01 06:59:39;;;;;;;;;;;9.90;99.90;;;;;;5053240;28;20637;-65
2023/11/01 07:02:06;;;;;;;0.30;0.22;;;9.90;99.90;;;;;;5063775;28;20406;-63
2023/11/01 07:04:32;;;;;;;1.15;0.30;;;10.00;99.90;;;;;;5049690;28;20041;-64
2023/11/01 07:06:58;;;;;;;;;;;10.00;99.90;;;;;;5059458;28;20165;-63
2023/11/01 07:09:24;;;;;;;0.95;0.30;;;10.00;99.90;;;;;;5053269;28;19967;-65
2023/11/01 07:11:49;;;;;;;2.55;0.30;;;10.00;99.90;;;;;;5055575;28;20108;-66
2023/11/01 07:14:15;;;;;;;;;;;10.00;99.90;;;;;;5054166;28;20037;-66
2023/11/01 07:16:42;;;;;;;2.75;0.40;;;10.00;99.90;;;;;;5057148;28;20003;-62
2023/11/01 07:19:08;;;;;;;4.05;0.43;;;10.00;99.90;;;;;;5049793;28;20515;-66
2023/11/01 07:21:33;;;;;;;;;;;10.00;99.90;;;;;;5053310;28;20040;-64
2023/11/01 07:23:59;;;;;;;3.67;1.02;;;10.00;99.90;;;;;;5053461;28;20395;-62
2023/11/01 07:26:25;;;;;;;4.00;0.47;;;10.00;99.90;;;;;;5045467;28;20033;-63
2023/11/01 07:28:51;;;;;;;;;;;10.10;99.90;;;;;;5057176;28;20052;-62
2023/11/01 07:31:17;;;;;;;2.85;0.90;;;10.10;99.90;;;;;;5059308;28;19924;-63
2023/11/01 07:33:43;;;;;;;7.72;1.25;;;10.10;99.90;;;;;;5056150;28;20090;-62
2023/11/01 07:36:10;;;;;;;6.03;0.90;;;10.10;99.90;;;;;;5063820;28;20192;-65
2023/11/01 07:38:36;;;;;;;8.13;1.60;;;10.10;99.90;;;;;;5062053;28;20663;-65
2023/11/01 07:41:01;;;;;;;;;;;10.10;99.90;;;;;;5065047;28;20070;-63
2023/11/01 07:43:27;;;;;;;7.10;1.10;;;10.10;99.90;;;;;;5064113;28;20398;-63
2023/11/01 07:45:53;;;;;;;;;;;10.20;99.90;;;;;;5065397;28;20060;-62
2023/11/01 07:48:19;;;;;;;6.07;1.08;;;10.20;99.90;;;;;;5067049;28;19920;-63
2023/11/01 07:50:44;;;;;;;6.93;1.48;;;10.20;99.90;;;;;;5059982;28;20041;-63
2023/11/01 07:53:10;;;;;;;;;;;10.20;99.90;;;;;;5068980;28;20499;-62
2023/11/01 07:55:36;;;;;;;8.55;1.50;;;10.30;99.90;;;;;;5063513;28;19924;-63
2023/11/01 07:58:01;;;;;;;;;;;10.30;99.90;;;;;;5057636;28;20040;-63
2023/11/01 08:00:27;;;;;;;7.22;1.63;;;10.30;99.90;;;;;;5062358;28;19960;-62
2023/11/01 08:02:55;;;;;;;;;;;10.30;99.90;;;;;;5065096;28;20136;-64
2023/11/01 08:05:22;;;;;;;7.70;1.58;;;10.30;99.90;;;;;;5065614;28;20436;-59
2023/11/01 08:07:52;;;;;;;7.57;1.40;;;10.30;99.90;;;;;;5060171;28;20102;-64
2023/11/01 08:10:18;;;;;;;13.65;2.38;;;10.30;99.90;;;;;;5065878;28;20053;-63
2023/11/01 08:12:43;;;;;;;;;;;10.30;99.90;;;;;;5062201;28;20048;-62
2023/11/01 08:15:09;;;;;;;5.85;1.20;;;10.30;99.90;;;;;;5057471;28;19999;-63
2023/11/01 08:17:35;;;;;;;;;;;10.40;99.90;;;;;;5057385;28;20040;-61
2023/11/01 08:20:00;;;;;;;10.57;1.45;;;10.30;99.90;;;;;;5054225;28;20407;-63
2023/11/01 08:22:26;;;;;;;9.68;1.95;;;10.40;99.90;;;;;;5056034;28;20061;-62
2023/11/01 08:24:52;;;;;;;15.75;2.00;;;10.40;99.90;;;;;;5056779;28;20036;-62
2023/11/01 08:27:17;;;;;;;;;;;10.50;99.90;;;;;;5058281;28;20098;-63
2023/11/01 08:29:43;;;;;;;9.68;1.60;;;10.50;99.90;;;;;;5054250;28;19925;-62
2023/11/01 08:32:12;;;;;;;;;;;10.60;99.90;;;;;;5059309;28;20455;-62
2023/11/01 08:34:38;;;;;;;12.98;1.83;;;10.70;99.90;;;;;;5056032;28;19924;-63
2023/11/01 08:37:04;;;;;;;;;;;10.80;99.90;;;;;;5066137;28;20036;-63
2023/11/01 08:39:30;;;;;;;13.65;2.45;;;10.80;99.90;;;;;;5066929;28;19920;-63
2023/11/01 08:41:58;;;;;;;12.57;1.80;;;10.90;99.90;;;;;;5053475;28;20120;-62
2023/11/01 08:44:25;;;;;;;7.18;1.92;;;10.90;99.90;;;;;;5048345;28;20045;-62
2023/11/01 08:46:51;;;;;;;9.30;1.20;;;10.90;99.90;;;;;;5058178;28;20090;-62
2023/11/01 08:49:16;;;;;;;;;;;11.00;99.90;;;;;;5059965;28;20037;-62
2023/11/01 08:51:42;;;;;;;7.30;0.98;;;11.10;99.90;;;;;;5055314;28;20551;-62
2023/11/01 08:54:09;;;;;;;;;;;11.10;99.90;;;;;;5062993;28;20045;-62
2023/11/01 08:56:38;;;;;;;9.73;1.52;;;11.10;99.90;;;;;;5057621;28;19944;-63
2023/11/01 08:59:04;;;;;;;6.68;1.30;;;11.00;99.90;;;;;;5060676;28;20048;-64
2023/11/01 09:01:30;;;;;;;;;;;11.00;99.90;;;;;;5043035;28;20132;-62
2023/11/01 09:03:56;;;;;;;6.72;1.10;;;11.00;99.90;;;;;;5054797;28;19917;-62
2023/11/01 09:06:21;;;;;;;;;;;11.00;99.90;;;;;;5061502;28;20090;-63
2023/11/01 09:08:47;;;;;;;9.18;1.85;;;11.00;99.90;;;;;;5059408;28;20273;-63
2023/11/01 09:11:13;;;;;;;10.45;1.70;;;11.00;99.90;;;;;;5063902;28;20041;-63
2023/11/01 09:13:39;;;;;;;;;;;11.00;99.90;;;;;;5067154;28;20046;-62
2023/11/01 09:16:05;;;;;;;4.43;1.00;;;11.00;99.90;;;;;;5058522;28;20290;-62
2023/11/01 09:18:31;;;;;;;6.20;0.82;;;11.00;99.90;;;;;;5068773;28;20411;-63
2023/11/01 09:20:57;;;;;;;;;;;11.00;99.90;;;;;;5055241;28;20040;-62
2023/11/01 09:23:23;;;;;;;5.50;1.40;;;11.00;99.90;;;;;;5064227;28;20475;-62
2023/11/01 09:25:49;;;;;;;7.53;1.33;;;11.10;99.90;;;;;;5062685;28;20045;-62
2023/11/01 09:28:15;;;;;;;16.50;3.05;;;11.10;99.90;;;;;;5066322;28;20047;-62
2023/11/01 09:30:41;;;;;;;;;;;11.10;99.90;;;;;;5048410;28;20040;-62
2023/11/01 09:33:07;;;;;;;7.53;1.30;;;11.10;99.90;;;;;;5057345;28;19920;-62
2023/11/01 09:35:32;;;;;;;;;;;11.20;99.90;;;;;;5058029;28;20052;-64
2023/11/01 09:37:58;;;;;;;6.28;1.20;;;11.20;99.90;;;;;;5062255;28;20379;-62
2023/11/01 09:40:24;;;;;;;5.85;0.80;;;11.30;99.90;;;;;;5055597;28;20041;-64
2023/11/01 09:42:51;;;;;;;5.65;1.00;;;11.50;99.90;;;;;;5066104;28;20074;-63
2023/11/01 09:45:18;;;;;;;8.38;1.20;;;11.50;99.90;;;;;;5063547;28;20094;-63
2023/11/01 09:47:44;;;;;;;8.85;1.20;;;11.60;99.90;;;;;;5062225;28;20040;-65
2023/11/01 09:50:12;;;;;;;4.85;1.10;;;11.50;99.90;;;;;;5056432;28;20669;-63
2023/11/01 09:52:39;;;;;;;8.25;1.13;;;11.60;99.90;;;;;;5056794;28;20048;-63
2023/11/01 09:55:06;;;;;;;10.43;1.25;;;11.50;99.90;;;;;;5050572;28;20085;-64
2023/11/01 09:57:34;;;;;;;6.03;1.27;;;11.50;99.90;;;;;;5055687;28;20658;-63
2023/11/01 10:00:03;;;;;;;6.43;1.45;;;11.40;99.90;;;;;;5060274;28;20036;-63
2023/11/01 10:02:31;;;;;;;9.00;1.52;;;11.40;99.90;;;;;;5054669;28;20044;-65
2023/11/01 10:05:02;;;;;;;10.63;1.35;;;11.40;99.90;;;;;;5054111;28;20123;-64
2023/11/01 10:07:28;;;;;;;5.95;1.38;;;11.40;99.90;;;;;;5046857;28;20079;-62
2023/11/01 10:09:54;;;;;;;;;;;11.40;99.90;;;;;;5045222;28;20488;-63
2023/11/01 10:12:20;;;;;;;6.32;1.27;;;11.50;99.90;;;;;;5052217;28;20575;-66
2023/11/01 10:14:46;;;;;;;;;;;11.60;99.90;;;;;;5064217;28;20072;-66
2023/11/01 10:17:11;;;;;;;6.85;1.17;;;11.70;99.90;;;;;;5058711;28;20204;-63
2023/11/01 10:19:40;;;;;;;;;;;11.70;99.90;;;;;;5059296;28;20221;-64
2023/11/01 10:22:06;;;;;;;6.95;1.50;;;11.70;99.90;;;;;;5052770;28;19916;-64
2023/11/01 10:24:31;;;;;;;;;;;11.70;99.90;;;;;;5051873;28;20527;-64
2023/11/01 10:26:57;;;;;;;9.45;2.25;;;11.70;99.90;;;;;;5053173;28;19924;-63
2023/11/01 10:29:23;;;;;;;;;;;11.70;99.90;;;;;;5052893;28;20056;-62
2023/11/01 10:31:56;;;;;;;10.57;1.63;;;11.70;99.90;;;;;;5053184;28;20009;-63
2023/11/01 10:34:31;;;;;;;5.88;1.73;;;11.70;99.90;;;;;;5058244;28;20407;-64
2023/11/01 10:36:59;;;;;;;8.32;1.55;;;11.70;99.90;;;;;;5052710;28;20048;-62
2023/11/01 10:39:26;;;;;;;7.70;1.20;;;11.70;99.90;;;;;;5053743;28;20105;-63
2023/11/01 10:41:53;;;;;;;5.78;0.90;;;11.60;99.90;;;;;;5065549;28;20040;-63
2023/11/01 10:44:21;;;;;;;7.05;1.10;;;11.60;99.90;;;;;;5051495;28;20129;-60
2023/11/01 10:46:47;;;;;;;9.32;1.38;;;11.60;99.90;;;;;;5046072;28;20033;-62
2023/11/01 10:49:13;;;;;;;7.30;1.10;;;11.60;99.90;;;;;;5052923;28;20036;-61
2023/11/01 10:51:40;;;;;;;;;;;11.60;99.90;;;;;;5057246;28;20119;-61
2023/11/01 10:54:07;;;;;;;3.92;1.20;;;11.80;99.90;;;;;;5059065;28;19916;-62
2023/11/01 10:56:33;;;;;;;6.47;1.95;;;11.90;99.90;;;;;;5057673;28;20045;-62
2023/11/01 10:59:03;;;;;;;;;;;12.00;99.90;;;;;;5056125;28;20029;-63
2023/11/01 11:02:01;;;;;;;6.53;1.27;;;12.20;99.90;;;;;;5047542;28;19931;-62
2023/11/01 11:07:33;;;;;;;9.52;1.48;;;12.50;99.90;;;;;;5024316;22;20061;-62
2023/11/01 11:10:17;;;;;;;;;;;12.50;99.90;;;;;;5012684;28;20042;-62
2023/11/01 11:12:42;;;;;;;6.32;1.05;;;12.40;99.90;;;;;;5020185;28;20388;-63
2023/11/01 11:15:08;;;;;;;;;;;12.40;99.90;;;;;;5023100;28;20040;-62
2023/11/01 11:17:38;;;;;;;7.15;1.92;;;12.40;99.90;;;;;;5012194;28;20004;-63
2023/11/01 11:20:13;;;;;;;5.90;1.00;;;12.40;99.90;;;;;;4996548;28;20517;-61
2023/11/01 11:23:02;;;;;;;5.38;0.93;;;12.50;99.90;;;;;;4998128;28;20044;-62
2023/11/01 11:25:48;;;;;;;10.10;2.15;;;12.70;99.90;;;;;;4990569;28;20050;-62
2023/11/01 11:28:26;;;;;;;9.40;1.77;;;12.80;99.90;;;;;;5003098;28;20543;-62
2023/11/01 11:31:03;;;;;;;6.07;1.10;;;12.80;99.90;;;;;;4995857;28;20030;-62
2023/11/01 11:33:37;;;;;;;5.72;1.27;;;12.90;99.90;;;;;;4994424;28;20043;-62
2023/11/01 11:36:11;;;;;;;8.80;1.48;;;12.90;99.90;;;;;;4997571;28;20490;-62
2023/11/01 11:38:38;;;;;;;17.20;1.52;;;12.90;99.90;;;;;;4998982;28;20038;-64
2023/11/01 11:41:16;;;;;;;5.75;1.33;;;13.00;99.90;;;;;;5000492;28;20042;-65
2023/11/01 11:44:04;;;;;;;5.82;0.70;;;13.10;99.90;;;;;;5002691;28;20072;-64
2023/11/01 11:46:35;;;;;;;8.48;1.40;;;13.30;99.90;;;;;;4997358;28;20038;-64
2023/11/01 11:49:03;;;;;;;6.13;1.02;;;13.40;99.90;;;;;;5005437;28;20374;-63
2023/11/01 11:51:29;;;;;;;10.57;1.88;;;13.60;99.90;;;;;;5005490;28;20037;-63
2023/11/01 11:53:56;;;;;;;6.43;0.95;;;13.60;99.90;;;;;;5003469;28;20125;-63
2023/11/01 11:56:22;;;;;;;7.82;1.38;;;13.70;99.90;;;;;;5003123;28;20057;-64
2023/11/01 11:58:47;;;;;;;;;;;13.50;99.90;;;;;;5004754;28;20042;-63
2023/11/01 12:01:23;;;;;;;6.15;1.30;;;13.50;99.90;;;;;;5004105;28;19947;-63
2023/11/01 12:03:54;;;;;;;10.18;1.23;;;13.30;99.90;;;;;;5006468;28;20038;-63
2023/11/01 12:06:27;;;;;;;7.65;1.33;;;13.30;99.90;;;;;;4994132;28;20161;-63
2023/11/01 12:08:55;;;;;;;6.43;1.38;;;13.30;99.90;;;;;;5006388;28;20444;-63
2023/11/01 12:11:30;;;;;;;5.60;1.45;;;13.40;99.90;;;;;;5005280;28;20042;-64
2023/11/01 12:13:59;;;;;;;5.38;1.83;;;13.50;99.90;;;;;;5003759;28;20037;-64
2023/11/01 12:16:29;;;;;;;8.65;1.40;;;13.70;99.90;;;;;;5010176;28;20068;-63
2023/11/01 12:19:21;;;;;;;6.55;1.38;;;13.80;99.90;;;;;;5009278;28;20099;-63
2023/11/01 12:21:54;;;;;;;8.63;1.50;;;13.60;99.90;;;;;;5005301;28;20041;-64
2023/11/01 12:24:28;;;;;;;4.80;1.17;;;13.60;99.90;;;;;;5005881;28;20072;-63
2023/11/01 12:26:58;;;;;;;6.25;1.00;;;13.40;99.90;;;;;;5002017;28;20039;-64
2023/11/01 12:29:52;;;;;;;5.55;1.02;;;13.40;99.90;;;;;;5007166;28;20485;-64
2023/11/01 12:32:28;;;;;;;6.45;1.30;;;13.10;99.90;;;;;;5007374;28;20076;-64
2023/11/01 12:34:53;;;;;;;7.43;1.48;;;13.10;99.90;;;;;;5006466;28;20080;-64
2023/11/01 12:37:28;;;;;;;;;;;13.00;99.90;;;;;;5010169;28;20520;-65
2023/11/01 12:40:16;;;;;;;7.85;1.20;;;12.90;99.90;;;;;;5009949;28;19917;-63
2023/11/01 12:42:50;;;;;;;6.55;1.55;;;12.90;99.90;;;;;;5000537;28;20038;-64
2023/11/01 12:45:23;;;;;;;6.85;1.48;;;12.90;99.90;;;;;;5008686;28;20042;-64
2023/11/01 12:47:56;;;;;;;8.52;1.58;;;12.90;99.90;;;;;;5019088;28;20696;-63
2023/11/01 12:50:35;;;;;;;6.07;1.33;;;13.00;99.90;;;;;;5008666;28;20045;-64
2023/11/01 12:53:00;;;;;;;8.38;1.25;;;13.00;99.90;;;;;;5004783;28;20042;-63
2023/11/01 12:55:28;;;;;;;;;;;13.00;99.90;;;;;;5001920;28;20042;-63
2023/11/01 12:57:54;;;;;;;;;;;12.90;99.90;;;;;;5006183;28;19923;-63
2023/11/01 13:00:23;;;;;;;11.55;1.35;;;12.80;99.90;;;;;;5006640;28;19968;-61
2023/11/01 13:02:49;;;;;;;7.18;1.30;;;12.80;99.90;;;;;;5005266;28;20066;-62
2023/11/01 13:05:15;;;;;;;7.20;1.35;;;12.80;99.90;;;;;;5005006;28;20607;-62
2023/11/01 13:07:42;;;;;;;;;;;12.80;99.90;;;;;;5003400;28;20053;-63
2023/11/01 13:10:11;;;;;;;4.15;1.17;;;12.80;99.90;;;;;;5010284;28;19928;-63
2023/11/01 13:12:42;;;;;;;6.70;1.17;;;12.70;99.90;;;;;;5006327;28;20046;-63
2023/11/01 13:15:08;;;;;;;7.32;1.17;;;12.70;99.90;;;;;;5006069;28;20049;-62
2023/11/01 13:17:34;;;;;;;;;;;12.60;99.90;;;;;;5006422;28;20092;-62
2023/11/01 13:20:00;;;;;;;5.03;1.25;;;12.50;99.90;;;;;;5005637;28;20086;-62